Time;durP1;ratioP1;P1;durP2;ratioP2;P2;SDS_P1;SDS_P2;PMS_P1;PMS_P2;Temp;Humidity;BMP_temperature;BMP_pressure;BME280_temperature;BME280_humidity;BME280_pressure;Samples;Min_cycle;Max_cycle;Signal;HPM_P1;HPM_P2
2022/10/06 00:00:37;;;;;;;6.82;2.70;;;;;;;;;;5106516;28;20046;-59
2022/10/06 00:03:08;;;;;;;4.00;2.20;;;;;;;;;;5149753;28;20058;-60
2022/10/06 00:05:52;;;;;;;4.10;2.25;;;;;;;;;;5147870;28;20513;-60
2022/10/06 00:14:25;;;;;;;4.60;2.15;;;;;;;;;;5066537;28;20088;-60
2022/10/06 00:17:08;;;;;;;3.28;1.85;;;;;;;;;;5132863;27;20333;-60
2022/10/06 00:19:43;;;;;;;2.90;2.10;;;;;;;;;;5125176;27;20027;-59
2022/10/06 00:25:33;;;;;;;3.47;2.25;;;;;;;;;;5147975;27;20038;-59
2022/10/06 00:28:14;;;;;;;3.03;2.00;;;;;;;;;;5147801;27;20118;-60
2022/10/06 00:31:22;;;;;;;3.03;1.60;;;;;;;;;;5148050;27;20031;-60
2022/10/06 00:33:55;;;;;;;2.72;2.20;;;;;;;;;;5081035;27;20027;-60
2022/10/06 00:39:54;;;;;;;2.75;1.50;;;;;;;;;;5104405;27;20039;-59
2022/10/06 00:42:28;;;;;;;2.97;2.08;;;;;;;;;;5044320;28;20026;-60
2022/10/06 00:45:01;;;;;;;3.72;2.25;;;;;;;;;;5136988;27;20027;-60
2022/10/06 00:47:45;;;;;;;6.57;2.20;;;;;;;;;;5147971;27;20027;-60
2022/10/06 01:01:59;;;;;;;2.92;2.00;;;;;;;;;;5094634;27;20101;-60
2022/10/06 01:05:00;;;;;;;;;;;;;;;;;;;;;
2022/10/06 01:07:33;;;;;;;3.35;1.77;;;;;;;;;;5147441;27;20098;-60
2022/10/06 01:19:21;;;;;;;3.90;2.38;;;;;;;;;;5148243;27;20155;-60
2022/10/06 01:22:09;;;;;;;5.97;2.20;;;;;;;;;;5152398;27;20019;-60
2022/10/06 01:24:56;;;;;;;3.75;2.20;;;;;;;;;;5152089;27;20090;-59
2022/10/06 01:27:38;;;;;;;2.35;1.70;;;;;;;;;;5152096;27;20044;-60
2022/10/06 01:30:26;;;;;;;3.33;1.88;;;;;;;;;;5152627;27;20042;-59
2022/10/06 01:33:09;;;;;;;3.35;2.42;;;;;;;;;;5134032;27;20031;-60
2022/10/06 01:35:56;;;;;;;4.38;1.55;;;;;;;;;;5115231;27;20496;-60
2022/10/06 01:38:44;;;;;;;2.83;1.63;;;;;;;;;;5100370;28;20074;-60
2022/10/06 01:41:21;;;;;;;2.55;1.80;;;;;;;;;;5131124;28;20502;-59
2022/10/06 01:43:53;;;;;;;3.83;1.73;;;;;;;;;;5129646;28;20036;-60
2022/10/06 01:52:56;;;;;;;4.35;1.90;;;;;;;;;;5108222;28;20039;-60
2022/10/06 02:02:03;;;;;;;2.40;1.67;;;;;;;;;;5130718;28;20068;-60
2022/10/06 02:07:19;;;;;;;6.77;1.87;;;;;;;;;;5127472;28;20047;-60
2022/10/06 02:10:15;;;;;;;4.22;1.83;;;;;;;;;;5112087;28;20020;-60
2022/10/06 02:13:21;;;;;;;4.60;2.00;;;;;;;;;;5108983;28;20040;-60
2022/10/06 02:16:05;;;;;;;3.70;1.85;;;;;;;;;;5027724;28;20034;-60
2022/10/06 02:18:35;;;;;;;2.75;1.67;;;;;;;;;;5019535;28;20025;-60
2022/10/06 02:21:18;;;;;;;2.72;1.98;;;;;;;;;;5088185;28;20033;-60
2022/10/06 02:26:52;;;;;;;4.03;1.77;;;;;;;;;;5087853;28;20055;-60
2022/10/06 02:29:37;;;;;;;4.88;2.33;;;;;;;;;;5071219;28;20105;-60
2022/10/06 02:32:48;;;;;;;;;;;;;;;;;;;;;
2022/10/06 02:38:08;;;;;;;2.85;1.52;;;;;;;;;;5105789;28;20055;-60
2022/10/06 02:40:42;;;;;;;5.13;2.15;;;;;;;;;;5108229;28;20031;-60
2022/10/06 02:43:36;;;;;;;3.22;2.40;;;;;;;;;;5090767;28;20082;-60
2022/10/06 02:46:29;;;;;;;;;;;;;;;;;;;;;
2022/10/06 02:48:56;;;;;;;2.95;1.83;;;;;;;;;;5067926;27;20062;-60
2022/10/06 02:51:38;;;;;;;4.35;2.25;;;;;;;;;;5150190;27;20023;-60
2022/10/06 03:00:36;;;;;;;;;;;;;;;;;;;;;
2022/10/06 03:03:18;;;;;;;5.40;2.10;;;;;;;;;;5150965;27;20054;-59
2022/10/06 03:06:20;;;;;;;2.40;1.83;;;;;;;;;;5150341;27;20086;-59
2022/10/06 03:08:59;;;;;;;9.57;2.35;;;;;;;;;;5150845;27;20011;-60
2022/10/06 03:11:53;;;;;;;4.30;1.92;;;;;;;;;;5150263;27;20024;-59
2022/10/06 03:14:43;;;;;;;4.45;2.50;;;;;;;;;;5103113;27;20035;-60
2022/10/06 03:17:28;;;;;;;3.45;2.10;;;;;;;;;;5150254;27;20027;-59
2022/10/06 03:20:52;;;;;;;2.90;2.28;;;;;;;;;;5150744;27;20546;-60
2022/10/06 03:23:20;;;;;;;4.20;2.17;;;;;;;;;;5141354;27;20103;-60
2022/10/06 03:26:00;;;;;;;4.10;2.22;;;;;;;;;;5149962;27;20033;-59
2022/10/06 03:28:59;;;;;;;3.35;2.25;;;;;;;;;;5150466;28;20663;-59
2022/10/06 03:34:47;;;;;;;2.67;1.85;;;;;;;;;;5136180;28;20484;-59
2022/10/06 03:40:06;;;;;;;3.63;2.45;;;;;;;;;;5121831;28;20468;-59
2022/10/06 03:43:10;;;;;;;2.60;1.92;;;;;;;;;;5135798;28;20045;-59
2022/10/06 03:49:04;;;;;;;2.70;1.75;;;;;;;;;;4994444;28;20040;-59
2022/10/06 03:51:56;;;;;;;3.58;2.13;;;;;;;;;;5004658;28;20476;-60
2022/10/06 03:57:34;;;;;;;5.43;2.88;;;;;;;;;;4996701;28;20404;-59
2022/10/06 04:00:23;;;;;;;2.85;2.47;;;;;;;;;;4979990;28;20488;-59
2022/10/06 04:02:53;;;;;;;3.22;2.00;;;;;;;;;;4980279;28;20424;-59
2022/10/06 04:08:19;;;;;;;3.28;2.50;;;;;;;;;;5075609;28;20405;-59
2022/10/06 04:10:57;;;;;;;3.22;2.22;;;;;;;;;;5075083;28;20038;-59
2022/10/06 04:16:50;;;;;;;3.55;2.38;;;;;;;;;;5015163;28;20034;-59
2022/10/06 04:19:19;;;;;;;2.95;2.22;;;;;;;;;;5033131;28;20056;-60
2022/10/06 04:22:07;;;;;;;3.63;2.28;;;;;;;;;;5038895;28;20029;-59
2022/10/06 04:24:49;;;;;;;;;;;;;;;;;;;;;
2022/10/06 04:27:30;;;;;;;3.35;2.17;;;;;;;;;;5051862;28;20045;-59
2022/10/06 04:30:25;;;;;;;5.95;2.42;;;;;;;;;;5055601;28;20083;-59
2022/10/06 04:33:21;;;;;;;2.90;2.00;;;;;;;;;;5055041;28;20545;-59
2022/10/06 04:42:02;;;;;;;3.90;2.40;;;;;;;;;;4995431;28;20589;-59
2022/10/06 04:44:53;;;;;;;2.78;1.63;;;;;;;;;;4992907;28;20038;-59
2022/10/06 04:51:13;;;;;;;3.08;2.03;;;;;;;;;;4985098;28;20258;-59
2022/10/06 04:56:57;;;;;;;;;;;;;;;;;;;;;
2022/10/06 05:11:18;;;;;;;3.20;1.75;;;;;;;;;;4992228;28;19913;-59
2022/10/06 05:13:54;;;;;;;5.63;3.05;;;;;;;;;;4983947;28;20045;-59
2022/10/06 05:16:44;;;;;;;;;;;;;;;;;;;;;
2022/10/06 05:19:16;;;;;;;;;;;;;;;;;;5098935;27;20038;-59
2022/10/06 05:22:07;;;;;;;3.67;2.53;;;;;;;;;;5139041;27;20300;-59
2022/10/06 05:25:08;;;;;;;3.95;2.38;;;;;;;;;;5118355;27;20077;-59
2022/10/06 05:27:57;;;;;;;2.55;1.80;;;;;;;;;;5034837;28;20037;-59
2022/10/06 05:33:49;;;;;;;3.13;2.38;;;;;;;;;;5141536;27;20035;-59
2022/10/06 05:37:05;;;;;;;3.28;2.45;;;;;;;;;;5147411;27;20031;-59
2022/10/06 05:39:47;;;;;;;4.53;2.72;;;;;;;;;;5053997;27;20043;-60
2022/10/06 05:42:34;;;;;;;7.72;4.95;;;;;;;;;;5148151;27;20043;-59
2022/10/06 05:45:10;;;;;;;6.30;4.32;;;;;;;;;;5145338;27;20046;-59
2022/10/06 05:47:37;;;;;;;7.80;3.65;;;;;;;;;;5128153;27;20046;-59
2022/10/06 05:50:19;;;;;;;6.25;3.85;;;;;;;;;;5147030;27;20392;-59
2022/10/06 05:53:20;;;;;;;6.20;3.72;;;;;;;;;;5128098;27;20031;-59
2022/10/06 05:55:52;;;;;;;4.15;2.55;;;;;;;;;;5141770;27;20692;-59
2022/10/06 05:58:50;;;;;;;5.18;2.45;;;;;;;;;;5146587;27;20023;-59
2022/10/06 06:02:04;;;;;;;4.68;2.45;;;;;;;;;;5145881;27;20023;-59
2022/10/06 06:04:44;;;;;;;3.67;2.55;;;;;;;;;;5043276;28;20109;-59
2022/10/06 06:13:31;;;;;;;3.67;2.72;;;;;;;;;;5120891;27;20031;-59
2022/10/06 06:16:07;;;;;;;5.72;2.53;;;;;;;;;;5116969;27;20027;-59
2022/10/06 06:18:56;;;;;;;2.88;2.33;;;;;;;;;;5135870;27;20483;-59
2022/10/06 06:21:40;;;;;;;3.40;2.35;;;;;;;;;;5135944;27;20031;-60
2022/10/06 06:27:19;;;;;;;10.45;3.53;;;;;;;;;;5135562;27;20035;-60
2022/10/06 06:33:05;;;;;;;5.13;2.95;;;;;;;;;;5131532;27;20046;-60
2022/10/06 06:35:50;;;;;;;4.45;2.60;;;;;;;;;;5089086;27;20038;-60
2022/10/06 06:38:17;;;;;;;3.55;2.60;;;;;;;;;;5150226;27;20049;-60
2022/10/06 06:47:04;;;;;;;2.70;2.20;;;;;;;;;;5066001;28;20104;-60
2022/10/06 06:55:49;;;;;;;5.85;2.40;;;;;;;;;;5118528;27;20061;-60
2022/10/06 06:58:50;;;;;;;3.45;2.88;;;;;;;;;;5149012;27;20052;-60
2022/10/06 07:01:46;;;;;;;4.25;2.45;;;;;;;;;;5072180;27;20080;-59
2022/10/06 07:07:25;;;;;;;3.80;2.13;;;;;;;;;;5083971;28;20067;-59
2022/10/06 07:09:54;;;;;;;4.35;2.70;;;;;;;;;;5082954;28;20067;-60
2022/10/06 07:12:44;;;;;;;3.90;2.25;;;;;;;;;;5084543;28;20064;-60
2022/10/06 07:27:14;;;;;;;2.67;1.85;;;;;;;;;;5085517;28;20040;-60
2022/10/06 07:32:59;;;;;;;3.22;1.60;;;;;;;;;;5071505;28;20187;-59
2022/10/06 07:35:50;;;;;;;2.75;1.67;;;;;;;;;;5104268;28;20027;-60
2022/10/06 07:51:05;;;;;;;3.45;1.70;;;;;;;;;;5064098;28;20056;-60
2022/10/06 07:53:40;;;;;;;2.67;1.42;;;;;;;;;;5014302;28;20105;-60
2022/10/06 07:56:33;;;;;;;5.22;2.30;;;;;;;;;;5044108;28;20033;-60
2022/10/06 07:59:24;;;;;;;3.55;1.40;;;;;;;;;;5135775;28;20032;-59
2022/10/06 08:02:18;;;;;;;2.70;1.40;;;;;;;;;;5148067;28;20035;-60
2022/10/06 08:08:01;;;;;;;6.75;2.40;;;;;;;;;;5147449;28;20499;-60
2022/10/06 08:17:11;;;;;;;2.35;1.27;;;;;;;;;;5041564;28;20076;-60
2022/10/06 08:22:55;;;;;;;6.07;1.27;;;;;;;;;;5059003;28;20492;-60
2022/10/06 08:28:42;;;;;;;2.28;0.95;;;;;;;;;;5143047;28;20042;-60
2022/10/06 08:34:20;;;;;;;4.82;1.77;;;;;;;;;;5134865;27;20031;-60
2022/10/06 08:37:03;;;;;;;;;;;;;;;;;;;;;
2022/10/06 08:43:16;;;;;;;2.55;0.95;;;;;;;;;;5138814;27;20499;-60
2022/10/06 08:45:53;;;;;;;1.40;0.88;;;;;;;;;;5034230;28;20499;-60
2022/10/06 08:48:47;;;;;;;2.03;0.70;;;;;;;;;;5034894;28;20026;-60
2022/10/06 08:51:42;;;;;;;6.57;1.23;;;;;;;;;;5135897;27;20027;-60
2022/10/06 08:54:28;;;;;;;2.42;1.08;;;;;;;;;;5142001;27;20015;-60
2022/10/06 08:57:13;;;;;;;4.45;1.10;;;;;;;;;;5139171;27;20031;-60
2022/10/06 09:00:04;;;;;;;4.95;1.08;;;;;;;;;;5119388;27;20035;-60
2022/10/06 09:02:40;;;;;;;;;;;;;;;;;;5137435;27;20035;-60
2022/10/06 09:08:11;;;;;;;;;;;;;;;;;;;;;
2022/10/06 09:11:20;;;;;;;4.47;0.95;;;;;;;;;;5136275;27;20034;-60
2022/10/06 09:14:08;;;;;;;5.18;1.35;;;;;;;;;;5138207;27;20024;-60
2022/10/06 09:23:04;;;;;;;4.38;1.42;;;;;;;;;;5135575;27;20038;-60
2022/10/06 09:25:56;;;;;;;1.80;0.70;;;;;;;;;;5135107;27;20023;-60
2022/10/06 09:28:33;;;;;;;3.03;1.05;;;;;;;;;;5137401;27;20111;-60
2022/10/06 09:31:36;;;;;;;3.20;0.80;;;;;;;;;;5118993;27;20498;-59
2022/10/06 09:34:40;;;;;;;1.67;1.20;;;;;;;;;;5137328;27;20024;-60
2022/10/06 09:37:13;;;;;;;2.00;1.10;;;;;;;;;;5137869;27;20528;-60
2022/10/06 09:39:52;;;;;;;8.35;2.47;;;;;;;;;;5137308;27;20078;-61
2022/10/06 09:42:34;;;;;;;5.47;1.40;;;;;;;;;;5138089;27;20075;-61
2022/10/06 09:45:45;;;;;;;2.08;0.70;;;;;;;;;;5137773;27;20513;-61
2022/10/06 09:52:40;;;;;;;;;;;;;;;;;;;;;
2022/10/06 09:54:33;;;;;;;4.32;1.35;;;;;;;;;;5127857;27;20388;-61
2022/10/06 10:00:11;;;;;;;2.65;0.93;;;;;;;;;;5137002;27;20043;-61
2022/10/06 10:03:18;;;;;;;4.47;1.15;;;;;;;;;;5117788;27;20015;-61
2022/10/06 10:06:04;;;;;;;3.05;0.73;;;;;;;;;;5131533;27;20061;-58
2022/10/06 10:09:00;;;;;;;3.83;1.33;;;;;;;;;;5131641;27;20031;-58
2022/10/06 10:15:10;;;;;;;1.42;0.75;;;;;;;;;;5136144;27;20084;-58
2022/10/06 10:21:04;;;;;;;4.63;1.02;;;;;;;;;;5136043;27;20028;-61
2022/10/06 10:23:38;;;;;;;2.63;1.00;;;;;;;;;;5114646;27;20388;-58
2022/10/06 10:32:54;;;;;;;4.72;0.98;;;;;;;;;;5136398;27;20027;-61
2022/10/06 10:41:40;;;;;;;3.20;0.75;;;;;;;;;;5092680;28;20513;-61
2022/10/06 10:44:27;;;;;;;2.05;1.00;;;;;;;;;;5070493;28;20047;-59
2022/10/06 10:47:18;;;;;;;4.60;1.27;;;;;;;;;;5074885;28;20082;-60
2022/10/06 10:49:57;;;;;;;7.55;2.17;;;;;;;;;;5075160;28;20036;-61
2022/10/06 10:52:36;;;;;;;3.83;1.42;;;;;;;;;;5092184;28;20032;-61
2022/10/06 10:55:28;;;;;;;5.35;1.15;;;;;;;;;;5077702;28;20036;-60
2022/10/06 11:01:35;;;;;;;;;;;;;;;;;;;;;
2022/10/06 11:04:23;;;;;;;5.00;0.63;;;;;;;;;;5116382;27;20035;-60
2022/10/06 11:07:12;;;;;;;2.33;0.70;;;;;;;;;;5133129;27;20065;-60
2022/10/06 11:10:03;;;;;;;2.90;1.20;;;;;;;;;;5116393;27;20488;-60
2022/10/06 11:12:35;;;;;;;;;;;;;;;;;;5116794;27;20035;-60
2022/10/06 11:15:36;;;;;;;;;;;;;;;;;;;;;
2022/10/06 11:18:32;;;;;;;2.72;0.82;;;;;;;;;;5120041;27;20140;-60
2022/10/06 11:21:17;;;;;;;2.75;0.80;;;;;;;;;;5035788;28;20033;-60
2022/10/06 11:27:21;;;;;;;4.95;1.08;;;;;;;;;;5135665;27;20043;-61
2022/10/06 11:30:37;;;;;;;;;;;;;;;;;;;;;
2022/10/06 11:33:41;;;;;;;5.28;1.40;;;;;;;;;;5130122;28;20110;-61
2022/10/06 11:36:16;;;;;;;1.83;1.05;;;;;;;;;;5032839;28;20041;-60
2022/10/06 11:38:58;;;;;;;6.65;2.08;;;;;;;;;;5015321;28;20088;-60
2022/10/06 11:45:12;;;;;;;3.38;1.25;;;;;;;;;;5121174;28;20027;-60
2022/10/06 11:48:16;;;;;;;;;;;;;;;;;;;;;
2022/10/06 11:53:46;;;;;;;2.65;1.20;;;;;;;;;;5135958;28;20063;-60
2022/10/06 12:02:39;;;;;;;1.75;0.98;;;;;;;;;;5051183;28;20263;-61
2022/10/06 12:06:25;;;;;;;2.30;1.05;;;;;;;;;;5113452;28;20042;-60
2022/10/06 12:08:45;;;;;;;3.08;1.70;;;;;;;;;;5117800;28;20031;-60
2022/10/06 12:11:42;;;;;;;3.83;1.15;;;;;;;;;;5121607;27;20031;-60
2022/10/06 12:14:24;;;;;;;3.85;0.90;;;;;;;;;;5123110;27;20556;-60
2022/10/06 12:20:29;;;;;;;8.82;1.00;;;;;;;;;;5131800;27;20084;-60
2022/10/06 12:23:21;;;;;;;3.33;1.17;;;;;;;;;;5138616;27;20027;-60
2022/10/06 12:26:06;;;;;;;3.35;0.85;;;;;;;;;;5138747;27;20061;-60
2022/10/06 12:29:12;;;;;;;4.40;0.70;;;;;;;;;;5138033;27;20027;-60
2022/10/06 12:32:30;;;;;;;2.25;0.88;;;;;;;;;;5138846;27;20023;-60
2022/10/06 12:35:24;;;;;;;;;;;;;;;;;;;;;
2022/10/06 12:38:01;;;;;;;3.63;1.00;;;;;;;;;;5137029;27;20053;-60
2022/10/06 12:41:07;;;;;;;3.03;0.95;;;;;;;;;;5113701;27;20045;-60
2022/10/06 12:43:37;;;;;;;4.30;1.38;;;;;;;;;;5137501;27;20036;-60
2022/10/06 12:47:03;;;;;;;11.52;1.73;;;;;;;;;;5103380;27;20476;-60
2022/10/06 12:52:49;;;;;;;;;;;;;;;;;;;;;
2022/10/06 12:58:47;;;;;;;1.92;0.88;;;;;;;;;;5138145;27;20025;-60
2022/10/06 13:01:54;;;;;;;3.60;1.10;;;;;;;;;;5073249;28;20033;-60
2022/10/06 13:04:42;;;;;;;2.25;1.17;;;;;;;;;;4994916;28;20038;-60
2022/10/06 13:07:17;;;;;;;4.68;1.17;;;;;;;;;;5020602;28;20501;-60
2022/10/06 13:13:13;;;;;;;7.05;0.93;;;;;;;;;;5108196;27;20076;-60
2022/10/06 13:21:46;;;;;;;4.10;0.80;;;;;;;;;;5096859;27;20027;-60
2022/10/06 13:24:44;;;;;;;2.55;1.35;;;;;;;;;;5138178;27;20384;-60
2022/10/06 13:27:40;;;;;;;2.42;0.93;;;;;;;;;;5117841;27;20035;-60
2022/10/06 13:33:23;;;;;;;3.50;1.23;;;;;;;;;;5129868;27;20023;-60
2022/10/06 13:39:14;;;;;;;3.63;1.27;;;;;;;;;;5117218;27;20038;-61
2022/10/06 13:44:59;;;;;;;4.20;1.50;;;;;;;;;;5150192;27;20035;-60
2022/10/06 13:47:49;;;;;;;2.80;1.15;;;;;;;;;;5151249;27;20050;-61
2022/10/06 13:50:44;;;;;;;1.98;0.90;;;;;;;;;;5150044;27;20048;-60
2022/10/06 13:53:51;;;;;;;2.15;0.93;;;;;;;;;;5105021;27;20027;-61
2022/10/06 13:59:39;;;;;;;3.60;1.25;;;;;;;;;;5029041;28;20044;-61
2022/10/06 14:02:37;;;;;;;5.18;1.08;;;;;;;;;;5047422;28;20030;-60
2022/10/06 14:05:28;;;;;;;7.90;1.17;;;;;;;;;;5046283;28;20031;-61
2022/10/06 14:08:34;;;;;;;4.57;1.23;;;;;;;;;;5109425;27;20043;-61
2022/10/06 14:11:12;;;;;;;4.07;1.23;;;;;;;;;;5131375;27;20080;-61
2022/10/06 14:14:04;;;;;;;4.53;1.75;;;;;;;;;;5149790;27;20395;-61
2022/10/06 14:16:41;;;;;;;5.85;2.33;;;;;;;;;;5149755;27;20456;-60
2022/10/06 14:19:44;;;;;;;5.22;1.55;;;;;;;;;;5132374;27;20027;-61
2022/10/06 14:22:44;;;;;;;6.28;1.38;;;;;;;;;;5131004;27;20065;-60
2022/10/06 14:25:37;;;;;;;8.45;1.55;;;;;;;;;;5132372;27;20061;-60
2022/10/06 14:28:12;;;;;;;3.42;1.13;;;;;;;;;;5149182;27;20038;-60
2022/10/06 14:31:03;;;;;;;4.22;1.30;;;;;;;;;;5150741;27;20015;-60
2022/10/06 14:33:52;;;;;;;3.85;1.17;;;;;;;;;;5148172;27;20026;-60
2022/10/06 14:36:27;;;;;;;4.53;1.27;;;;;;;;;;5150396;27;20030;-61
2022/10/06 14:39:31;;;;;;;3.13;1.25;;;;;;;;;;5149817;27;20334;-60
2022/10/06 14:54:37;;;;;;;4.07;1.08;;;;;;;;;;5083195;28;20039;-60
2022/10/06 14:57:22;;;;;;;3.92;1.00;;;;;;;;;;5129102;28;20086;-60
2022/10/06 15:00:43;;;;;;;5.97;1.92;;;;;;;;;;5110688;28;20139;-60
2022/10/06 15:03:32;;;;;;;6.85;2.00;;;;;;;;;;5029629;28;20068;-60
2022/10/06 15:09:08;;;;;;;6.33;1.50;;;;;;;;;;5046000;28;20064;-61
2022/10/06 15:11:40;;;;;;;2.47;1.25;;;;;;;;;;5041523;28;20026;-59
2022/10/06 15:14:38;;;;;;;1.30;0.73;;;;;;;;;;5046667;28;20507;-59
2022/10/06 15:17:23;;;;;;;5.70;1.48;;;;;;;;;;5047130;28;20056;-59
2022/10/06 15:20:19;;;;;;;3.95;1.52;;;;;;;;;;5047144;28;20515;-59
2022/10/06 15:29:13;;;;;;;;;;;;;;;;;;;;;
2022/10/06 15:32:41;;;;;;;2.15;1.02;;;;;;;;;;5060809;28;20070;-59
2022/10/06 15:34:42;;;;;;;4.55;1.10;;;;;;;;;;5109517;28;20088;-59
2022/10/06 15:37:33;;;;;;;4.63;1.40;;;;;;;;;;5119264;28;20049;-58
2022/10/06 15:43:03;;;;;;;3.60;1.52;;;;;;;;;;5115224;28;20070;-58
2022/10/06 15:45:47;;;;;;;7.93;2.63;;;;;;;;;;5151164;27;20020;-58
2022/10/06 15:48:41;;;;;;;3.85;1.50;;;;;;;;;;5146299;27;20050;-58
2022/10/06 15:51:36;;;;;;;6.72;2.08;;;;;;;;;;5145819;27;20056;-58
2022/10/06 15:54:32;;;;;;;5.85;1.67;;;;;;;;;;5120471;27;20020;-58
2022/10/06 15:57:17;;;;;;;5.03;1.50;;;;;;;;;;5136898;27;20045;-58
2022/10/06 16:01:02;;;;;;;4.00;1.17;;;;;;;;;;5139387;27;20015;-58
2022/10/06 16:03:34;;;;;;;4.95;1.60;;;;;;;;;;5111581;27;20114;-58
2022/10/06 16:12:15;;;;;;;;;;;;;;;;;;;;;
2022/10/06 16:15:02;;;;;;;5.72;2.08;;;;;;;;;;5051727;27;20027;-58
2022/10/06 16:18:12;;;;;;;4.70;1.05;;;;;;;;;;5139350;27;20037;-58
2022/10/06 16:20:56;;;;;;;4.55;1.73;;;;;;;;;;5035114;28;20021;-58
2022/10/06 16:23:48;;;;;;;5.15;1.48;;;;;;;;;;5136848;27;20114;-58
2022/10/06 16:26:27;;;;;;;5.95;1.80;;;;;;;;;;5134632;27;20467;-57
2022/10/06 16:29:25;;;;;;;3.35;1.50;;;;;;;;;;5139816;27;20015;-58
2022/10/06 16:32:35;;;;;;;3.50;1.75;;;;;;;;;;5137533;27;20396;-58
2022/10/06 16:35:38;;;;;;;2.80;1.52;;;;;;;;;;5035140;28;20112;-58
2022/10/06 16:38:04;;;;;;;2.72;1.60;;;;;;;;;;5117789;27;20087;-58
2022/10/06 16:40:39;;;;;;;2.67;1.50;;;;;;;;;;5118514;27;20067;-58
2022/10/06 16:46:39;;;;;;;2.33;1.20;;;;;;;;;;5035079;28;20132;-58
2022/10/06 16:49:18;;;;;;;7.30;1.80;;;;;;;;;;5053736;28;20107;-58
2022/10/06 16:51:53;;;;;;;3.88;2.03;;;;;;;;;;5092497;28;20036;-58
2022/10/06 16:54:51;;;;;;;4.50;2.25;;;;;;;;;;5093012;28;20036;-58
2022/10/06 16:57:32;;;;;;;2.97;1.92;;;;;;;;;;5094284;28;20065;-58
2022/10/06 17:01:00;;;;;;;;;;;;;;;;;;;;;
2022/10/06 17:06:32;;;;;;;11.02;1.73;;;;;;;;;;5087509;28;20055;-58
2022/10/06 17:09:24;;;;;;;4.63;1.50;;;;;;;;;;5056946;28;20028;-59
2022/10/06 17:12:13;;;;;;;4.20;1.63;;;;;;;;;;5072149;28;20413;-59
2022/10/06 17:14:48;;;;;;;2.47;1.20;;;;;;;;;;5095038;28;20481;-59
2022/10/06 17:17:36;;;;;;;1.98;1.02;;;;;;;;;;5094786;28;20032;-59
2022/10/06 17:20:21;;;;;;;4.93;1.73;;;;;;;;;;5075975;28;20496;-57
2022/10/06 17:23:00;;;;;;;4.53;1.35;;;;;;;;;;5085579;27;20543;-58
2022/10/06 17:26:01;;;;;;;6.18;1.38;;;;;;;;;;5119910;27;20039;-58
2022/10/06 17:28:42;;;;;;;;;;;;;;;;;;;;;
2022/10/06 17:34:11;;;;;;;8.57;2.35;;;;;;;;;;5124255;27;20064;-57
2022/10/06 17:40:04;;;;;;;3.28;2.15;;;;;;;;;;5058355;28;20035;-58
2022/10/06 17:42:48;;;;;;;5.22;1.75;;;;;;;;;;5051067;28;20048;-57
2022/10/06 17:46:13;;;;;;;4.07;2.28;;;;;;;;;;5074296;28;20438;-57
2022/10/06 17:48:49;;;;;;;5.93;2.05;;;;;;;;;;5057691;28;20041;-57
2022/10/06 17:54:32;;;;;;;5.85;2.30;;;;;;;;;;5053858;28;20502;-58
2022/10/06 17:57:39;;;;;;;3.50;2.22;;;;;;;;;;5051545;28;20045;-57
2022/10/06 18:00:26;;;;;;;8.52;3.13;;;;;;;;;;4973692;28;20046;-58
2022/10/06 18:03:11;;;;;;;8.52;2.85;;;;;;;;;;4974682;28;20031;-58
2022/10/06 18:05:59;;;;;;;;;;;;;;;;;;;;;
2022/10/06 18:08:45;;;;;;;3.50;2.03;;;;;;;;;;5037629;28;20379;-58
2022/10/06 18:12:02;;;;;;;3.22;1.92;;;;;;;;;;5073256;28;20094;-57
2022/10/06 18:14:37;;;;;;;5.28;2.15;;;;;;;;;;5000035;28;20552;-58
2022/10/06 18:20:20;;;;;;;3.80;2.40;;;;;;;;;;5045320;28;20116;-58
2022/10/06 18:23:23;;;;;;;;;;;;;;;;;;;;;
2022/10/06 18:29:36;;;;;;;5.07;2.47;;;;;;;;;;5027121;28;20116;-58
2022/10/06 18:35:41;;;;;;;3.92;2.45;;;;;;;;;;5115254;28;20073;-58
2022/10/06 18:38:30;;;;;;;4.20;2.20;;;;;;;;;;5070236;28;20417;-58
2022/10/06 18:41:43;;;;;;;;;;;;;;;;;;;;;
2022/10/06 18:50:55;;;;;;;6.05;2.60;;;;;;;;;;5135945;27;20487;-58
2022/10/06 18:53:53;;;;;;;8.68;2.67;;;;;;;;;;5111841;27;20035;-58
2022/10/06 18:56:35;;;;;;;6.07;2.85;;;;;;;;;;5108532;27;20122;-57
2022/10/06 19:02:11;;;;;;;4.57;2.60;;;;;;;;;;5084328;27;20058;-58
2022/10/06 19:05:11;;;;;;;4.43;2.55;;;;;;;;;;5135466;27;20099;-58
2022/10/06 19:14:09;;;;;;;8.85;3.20;;;;;;;;;;5135995;27;20096;-58
2022/10/06 19:20:23;;;;;;;;;;;;;;;;;;;;;
2022/10/06 19:23:32;;;;;;;5.10;2.03;;;;;;;;;;5131244;27;20108;-58
2022/10/06 19:29:12;;;;;;;;;;;;;;;;;;;;;
2022/10/06 19:31:49;;;;;;;3.33;2.22;;;;;;;;;;5131525;27;20125;-58
2022/10/06 19:34:38;;;;;;;4.25;2.22;;;;;;;;;;5099113;28;20084;-58
2022/10/06 19:43:32;;;;;;;;;;;;;;;;;;;;;
2022/10/06 19:46:10;;;;;;;3.35;1.70;;;;;;;;;;5131744;28;20114;-57
2022/10/06 19:48:42;;;;;;;6.22;1.85;;;;;;;;;;5093052;28;20374;-57
2022/10/06 19:51:21;;;;;;;10.02;2.33;;;;;;;;;;5075696;28;20516;-57
2022/10/06 19:54:02;;;;;;;5.70;2.20;;;;;;;;;;5083983;28;20039;-57
2022/10/06 19:59:45;;;;;;;3.90;2.40;;;;;;;;;;5092432;28;20381;-56
2022/10/06 20:09:00;;;;;;;;;;;;;;;;;;;;;
2022/10/06 20:14:44;;;;;;;4.93;2.33;;;;;;;;;;4991981;28;20143;-58
2022/10/06 20:17:41;;;;;;;3.63;2.25;;;;;;;;;;4992275;28;20059;-57
2022/10/06 20:20:46;;;;;;;7.32;2.70;;;;;;;;;;5003439;28;20034;-58
2022/10/06 20:23:41;;;;;;;5.13;2.35;;;;;;;;;;5102938;28;20062;-56
2022/10/06 20:26:41;;;;;;;4.28;1.77;;;;;;;;;;5135147;28;20495;-57
2022/10/06 20:29:21;;;;;;;4.53;1.83;;;;;;;;;;5134262;28;20148;-57
2022/10/06 20:31:57;;;;;;;;;;;;;;;;;;5138441;27;20115;-58
2022/10/06 20:34:42;;;;;;;7.20;2.25;;;;;;;;;;5119609;27;19903;-57
2022/10/06 20:37:26;;;;;;;5.53;2.45;;;;;;;;;;5105151;27;20043;-58
2022/10/06 20:45:49;;;;;;;5.03;2.22;;;;;;;;;;5138154;27;20392;-57
2022/10/06 20:48:28;;;;;;;7.90;2.05;;;;;;;;;;5138349;27;20036;-58
2022/10/06 20:54:48;;;;;;;4.72;2.35;;;;;;;;;;5113214;27;20034;-56
2022/10/06 20:57:14;;;;;;;3.13;2.00;;;;;;;;;;5056475;27;20515;-57
2022/10/06 20:59:55;;;;;;;4.03;1.88;;;;;;;;;;5119563;27;20023;-57
2022/10/06 21:02:21;;;;;;;;;;;;;;;;;;5129897;27;20031;-58
2022/10/06 21:05:19;;;;;;;;;;;;;;;;;;;;;
2022/10/06 21:08:01;;;;;;;3.13;1.60;;;;;;;;;;5086030;28;20136;-57
2022/10/06 21:14:01;;;;;;;7.13;2.97;;;;;;;;;;5086934;28;20035;-57
2022/10/06 21:17:00;;;;;;;;;;;;;;;;;;;;;
2022/10/06 21:19:36;;;;;;;;;;;;;;;;;;5082363;28;20067;-57
2022/10/06 21:22:20;;;;;;;3.47;1.67;;;;;;;;;;5086231;28;19905;-57
2022/10/06 21:31:12;;;;;;;6.30;3.00;;;;;;;;;;5137574;27;20035;-57
2022/10/06 21:37:16;;;;;;;4.00;1.73;;;;;;;;;;5054314;28;20041;-58
2022/10/06 21:39:48;;;;;;;7.78;2.45;;;;;;;;;;5045129;28;20166;-58
2022/10/06 21:42:21;;;;;;;5.10;2.70;;;;;;;;;;5064857;28;20471;-57
2022/10/06 21:45:09;;;;;;;;;;;;;;;;;;;;;
2022/10/06 21:48:05;;;;;;;6.13;1.80;;;;;;;;;;5147976;27;20102;-57
2022/10/06 21:51:09;;;;;;;4.90;2.13;;;;;;;;;;5148903;27;20083;-56
2022/10/06 22:02:26;;;;;;;3.42;1.80;;;;;;;;;;5149757;27;20057;-57
2022/10/06 22:07:41;;;;;;;5.55;2.40;;;;;;;;;;5149223;27;20475;-58
2022/10/06 22:10:35;;;;;;;6.13;2.20;;;;;;;;;;5080894;27;20229;-58
2022/10/06 22:13:14;;;;;;;3.05;1.50;;;;;;;;;;5149534;27;20049;-58
2022/10/06 22:16:04;;;;;;;4.57;1.80;;;;;;;;;;5129636;27;20051;-57
2022/10/06 22:21:42;;;;;;;6.30;2.05;;;;;;;;;;5133500;27;20091;-58
2022/10/06 22:27:27;;;;;;;4.85;2.00;;;;;;;;;;5105105;28;20155;-58
2022/10/06 22:30:23;;;;;;;5.53;1.88;;;;;;;;;;5106149;28;20167;-57
2022/10/06 22:35:59;;;;;;;7.40;2.72;;;;;;;;;;5098172;28;20097;-58
2022/10/06 22:41:46;;;;;;;4.93;2.05;;;;;;;;;;5148075;27;20039;-58
2022/10/06 22:47:39;;;;;;;7.13;1.95;;;;;;;;;;5143465;27;20099;-56
2022/10/06 22:50:17;;;;;;;4.25;2.17;;;;;;;;;;5147401;27;20033;-57
2022/10/06 23:02:33;;;;;;;5.32;2.33;;;;;;;;;;5138332;27;20066;-57
2022/10/06 23:08:11;;;;;;;4.28;2.67;;;;;;;;;;5133869;27;20053;-57
2022/10/06 23:10:58;;;;;;;4.88;2.33;;;;;;;;;;5147568;27;20052;-55
2022/10/06 23:13:52;;;;;;;6.78;1.40;;;;;;;;;;5128801;27;20031;-56
2022/10/06 23:16:30;;;;;;;4.43;2.65;;;;;;;;;;5128674;27;20031;-57
2022/10/06 23:18:59;;;;;;;5.43;2.00;;;;;;;;;;5147972;27;20015;-55
2022/10/06 23:21:50;;;;;;;6.10;2.25;;;;;;;;;;5147854;27;20102;-57
2022/10/06 23:25:11;;;;;;;;;;;;;;;;;;;;;
2022/10/06 23:27:21;;;;;;;3.70;2.28;;;;;;;;;;5142085;27;20038;-57
2022/10/06 23:30:13;;;;;;;8.52;2.28;;;;;;;;;;5147744;27;20026;-57
2022/10/06 23:32:45;;;;;;;3.97;1.85;;;;;;;;;;5147957;27;20062;-57
2022/10/06 23:35:18;;;;;;;2.92;1.67;;;;;;;;;;5143523;27;20035;-57
2022/10/06 23:37:55;;;;;;;5.80;2.85;;;;;;;;;;5147571;28;20016;-57
2022/10/06 23:40:21;;;;;;;4.82;2.03;;;;;;;;;;5147056;28;20031;-57
2022/10/06 23:48:38;;;;;;;4.20;1.75;;;;;;;;;;5147602;28;20034;-57
2022/10/06 23:51:35;;;;;;;3.60;1.63;;;;;;;;;;5147557;28;20031;-57
2022/10/06 23:54:20;;;;;;;4.75;2.13;;;;;;;;;;5057523;28;20068;-57
2022/10/06 23:57:18;;;;;;;4.90;2.17;;;;;;;;;;5147590;28;20031;-57
